Togiak, Alaska
Current Conditions -  °F | °C
As of 9:16 PM on Wednesday 22 Oct 2014 (Local Time) from PATG Reporting Station
Clear Clear  
Wind Chill: 18°   Ceiling: Unl
Heat Index: 30°   Visibility: 10mi
Dew Point: 21°   Wind: 17mph
Humidity: 69%   Direction: 340°NNW
Pressure: 29.82"   Gusts: 25mph
Location:  59.07°N, 160.39°W
Report Text: PATG 230516Z AUTO 34015G22KT 10SM CLR M01/M06 A2982 RMK AO1
Loading
Personal Weather Stations






























Interactive Weather Map
Tropical Storm Tracking
New forecast layout! Learn more

10-Day Weather Forecast

Advertisements
Track Severe Weather on mobile